Latest Weather Observations for Sunshine Coast Airport

IDQ60901

Issued at 2:11 am EST Tuesday 23 April 2019 (issued every 10 minutes, with the page automatically refreshed every 10 minutes)

About weather observations | Map of Brisbane area stations | Latest observations for Brisbane area | Other Formats
Station Details ID: 040861 Name: SUNSHINE COAST AIRPORT Lat: -26.60 Lon: 153.09 Height: 3.42 m
Data from the previous 72 hours. | See also: Recent months at Sunshine Coast Airport
Date/Time
EST
Temp
°C
App
Temp
°C
Dew
Point
°C
Rel
Hum
%
Delta-T
°C
Wind Press
QNH
hPa
Press
MSL
hPa
Rain since
9am
mm
Dir  Spd
km/h
Gust
km/h
Spd
kts
Gust
kts
23/02:00am 23.4 21.5 19.3 78 2.6 SE 28 39 15 21 1020.3 1020.2 2.4
23/01:30am 22.8 22.8 20.1 85 1.7 SE 20 28 11 15 1020.5 1020.4 2.4
23/01:10am 22.1 20.7 18.9 82 2.0 SE 24 33 13 18 1020.9 1020.8 2.4
23/01:00am 21.2 20.4 19.3 89 1.2 ESE 22 32 12 17 1021.2 1021.1 2.4
23/12:35am 21.0 18.5 18.9 88 1.3 E 30 44 16 24 1021.5 1021.4 1.8
23/12:30am 21.3 20.8 19.2 88 1.3 ESE 20 39 11 21 1021.6 1021.5 1.6
23/12:24am 21.5 21.8 19.6 89 1.2 SE 17 24 9 13 1021.4 1021.3 1.6
23/12:00am 20.9 18.1 19.0 89 1.2 E 32 41 17 22 1021.8 1021.7 1.0
 
Date/Time
EST
Temp
°C
App
Temp
°C
Dew
Point
°C
Rel
Hum
%
Delta-T
°C
Wind Press
QNH
hPa
Press
MSL
hPa
Rain since
9am
mm
Dir  Spd
km/h
Gust
km/h
Spd
kts
Gust
kts
22/11:45pm 21.5 18.7 19.4 88 1.3 E 33 43 18 23 1021.7 1021.6 0.2
22/11:30pm 22.1 19.4 19.3 84 1.8 E 32 43 17 23 1021.5 1021.4 0.0
22/11:00pm 23.4 21.8 18.3 73 3.2 ESE 24 33 13 18 1021.5 1021.4 0.0
22/10:30pm 23.3 21.2 19.0 77 2.7 ESE 28 37 15 20 1021.5 1021.4 0.0
22/10:00pm 23.5 22.2 19.0 76 2.9 ESE 24 33 13 18 1021.4 1021.3 0.0
22/09:30pm 23.6 21.6 18.3 72 3.3 ESE 26 35 14 19 1021.3 1021.2 0.0
22/09:00pm 23.8 22.4 18.7 73 3.2 ESE 24 35 13 19 1021.3 1021.2 0.0
22/08:30pm 23.8 22.1 18.9 74 3.1 ESE 26 35 14 19 1021.0 1020.9 0.0
22/08:00pm 23.7 22.4 19.0 75 3.0 ESE 24 37 13 20 1020.8 1020.7 0.0
22/07:30pm 23.7 22.4 19.0 75 3.0 ESE 24 37 13 20 1020.7 1020.6 0.0
22/07:00pm 23.9 22.7 19.2 75 3.0 ESE 24 35 13 19 1020.2 1020.1 0.0
22/06:30pm 23.9 22.3 19.2 75 3.0 ESE 26 35 14 19 1019.9 1019.8 0.0
22/06:00pm 23.8 22.4 18.7 73 3.2 ESE 24 32 13 17 1019.8 1019.7 0.0
22/05:30pm 23.3 24.1 19.9 81 2.2 SE 15 26 8 14 1019.6 1019.5 0.0
22/05:00pm 22.0 23.0 19.4 85 1.6 S 13 17 7 9 1019.3 1019.2 0.0
22/04:30pm 22.3 22.7 19.1 82 2.0 SSE 15 22 8 12 1019.2 1019.1 0.0
22/04:00pm 22.4 22.5 19.2 82 2.0 SSE 17 22 9 12 1019.2 1019.1 0.0
22/03:30pm 22.9 20.4 18.9 78 2.5 SE 30 43 16 23 1019.1 1019.0 0.0
22/03:23pm 23.1 20.1 18.6 76 2.8 SE 32 43 17 23 1019.1 1019.0 0.0
22/03:03pm 23.8 21.6 18.7 73 3.2 SE 28 35 15 19 1019.0 1018.9 0.0
22/03:00pm 24.0 21.7 18.4 71 3.5 SE 28 35 15 19 1019.1 1019.0 0.0
22/02:30pm 24.7 23.2 18.6 69 3.9 SE 24 32 13 17 1019.1 1019.0 0.0
22/02:00pm 24.5 22.4 18.9 71 3.6 SE 28 37 15 20 1018.9 1018.8 0.0
22/01:30pm 24.7 23.4 19.1 71 3.6 SSE 24 30 13 16 1019.3 1019.2 0.0
22/01:00pm 24.5 22.9 19.1 72 3.4 SE 26 35 14 19 1019.3 1019.2 0.0
22/12:30pm 25.7 24.8 19.8 70 3.8 ESE 24 39 13 21 1019.4 1019.3 0.0
22/12:00pm 25.1 23.3 19.5 71 3.6 ESE 28 37 15 20 1019.6 1019.5 0.0
22/11:30am 25.1 24.1 18.8 68 4.0 SE 22 32 12 17 1019.9 1019.8 0.0
22/11:00am 25.0 23.6 18.9 69 3.9 SE 24 33 13 18 1020.3 1020.2 0.0
22/10:30am 25.2 23.5 18.9 68 4.0 ESE 26 37 14 20 1020.5 1020.4 0.0
22/10:00am 24.9 22.7 17.9 65 4.4 SE 26 35 14 19 1020.7 1020.6 0.0
22/09:30am 24.7 22.8 18.6 69 3.9 ESE 26 32 14 17 1020.7 1020.6 0.0
22/09:00am 24.4 22.0 18.3 69 3.8 SE 28 35 15 19 1020.6 1020.5 2.6
22/08:30am 24.2 21.8 18.2 69 3.8 SE 28 39 15 21 1020.5 1020.4 2.6
22/08:00am 23.8 21.1 17.5 68 3.9 SE 28 37 15 20 1020.1 1020.0 2.6
22/07:30am 23.8 21.4 17.3 67 4.0 SE 26 33 14 18 1019.8 1019.7 2.6
22/07:00am 23.8 21.2 17.8 69 3.7 ESE 28 39 15 21 1019.4 1019.3 2.6
22/06:30am 22.8 21.9 18.3 76 2.8 SSE 20 28 11 15 1019.4 1019.3 2.6
22/06:00am 22.9 21.2 18.2 75 2.9 SE 24 35 13 19 1019.1 1019.0 2.6
22/05:30am 23.2 20.7 17.2 69 3.7 ESE 26 35 14 19 1018.9 1018.8 2.6
22/05:00am 23.2 21.6 17.4 70 3.6 ESE 22 37 12 20 1018.6 1018.5 2.6
22/04:30am 23.0 21.2 17.9 73 3.2 ESE 24 33 13 18 1018.6 1018.5 2.6
22/04:00am 23.1 20.7 17.3 70 3.6 ESE 26 33 14 18 1018.5 1018.4 2.6
22/03:30am 23.0 21.0 17.5 71 3.4 ESE 24 37 13 20 1018.3 1018.2 2.6
22/03:00am 23.1 21.4 18.2 74 3.1 ESE 24 33 13 18 1018.4 1018.3 2.6
22/02:30am 22.5 21.1 18.7 79 2.4 SE 24 32 13 17 1018.8 1018.7 2.6
22/02:00am 22.5 21.8 18.3 77 2.6 SE 19 28 10 15 1019.2 1019.1 2.6
22/01:30am 22.4 22.0 18.0 76 2.7 SE 17 22 9 12 1019.7 1019.6 2.6
22/01:00am 22.5 20.4 17.2 72 3.3 SE 24 32 13 17 1020.0 1019.9 2.6
22/12:30am 22.3 20.4 18.5 79 2.4 SE 26 33 14 18 1020.1 1020.0 2.6
22/12:12am 21.9 20.3 19.1 84 1.8 SE 26 35 14 19 1020.2 1020.1 2.6
22/12:00am 22.0 19.7 19.4 85 1.6 SE 30 44 16 24 1020.3 1020.2 2.6
 
Date/Time
EST
Temp
°C
App
Temp
°C
Dew
Point
°C
Rel
Hum
%
Delta-T
°C
Wind Press
QNH
hPa
Press
MSL
hPa
Rain since
9am
mm
Dir  Spd
km/h
Gust
km/h
Spd
kts
Gust
kts
21/11:51pm 21.3 18.2 18.5 84 1.8 ESE 32 44 17 24 1020.4 1020.3 2.4
21/11:30pm 23.2 21.3 18.5 75 3.0 SE 26 35 14 19 1020.4 1020.3 2.2
21/11:00pm 23.0 21.8 18.3 75 2.9 SE 22 30 12 16 1020.6 1020.5 2.2
21/10:30pm 23.2 20.9 18.5 75 3.0 SE 28 39 15 21 1020.8 1020.7 2.2
21/10:00pm 21.0 20.7 18.2 84 1.7 S 17 24 9 13 1021.0 1020.9 2.0
21/09:30pm 21.2 20.8 18.8 86 1.5 S 19 26 10 14 1021.1 1021.0 2.0
21/09:00pm 21.0 21.3 18.0 83 1.9 S 13 17 7 9 1020.9 1020.8 2.0
21/08:30pm 21.5 20.3 18.3 82 2.0 SSE 22 32 12 17 1020.7 1020.6 2.0
21/08:00pm 22.0 20.0 18.2 79 2.4 SSE 26 37 14 20 1020.7 1020.6 2.0
21/07:30pm 22.3 20.5 18.7 80 2.3 SE 26 43 14 23 1020.3 1020.2 2.0
21/07:15pm 22.5 20.2 18.5 78 2.5 SE 28 39 15 21 1020.2 1020.1 2.0
21/07:00pm 21.4 21.7 19.5 89 1.2 SSE 17 20 9 11 1020.0 1019.9 2.0
21/06:52pm 21.4 20.6 19.3 88 1.3 SSE 22 32 12 17 1019.8 1019.7 2.0
21/06:31pm 21.2 18.6 17.8 81 2.1 SSE 28 44 15 24 1019.7 1019.6 1.2
21/06:30pm 22.0 20.1 18.6 81 2.1 SSE 26 44 14 24 1019.7 1019.6 0.8
21/06:00pm 22.9 21.2 18.9 78 2.5 SSE 26 33 14 18 1019.4 1019.3 0.2
21/05:30pm 23.8 21.8 18.4 72 3.4 SE 26 35 14 19 1019.4 1019.3 0.2
21/05:00pm 23.8 21.6 17.8 69 3.7 SE 26 33 14 18 1019.1 1019.0 0.2
21/04:30pm 24.0 21.7 17.5 67 4.0 SE 26 35 14 19 1019.0 1018.9 0.2
21/04:00pm 24.3 21.7 16.8 63 4.6 SE 26 33 14 18 1019.1 1019.0 0.2
21/03:30pm 24.6 21.7 17.1 63 4.6 SE 28 35 15 19 1019.1 1019.0 0.2
21/03:00pm 25.1 21.8 17.1 61 5.0 SE 30 39 16 21 1019.1 1019.0 0.2
21/02:30pm 25.1 21.0 16.0 57 5.5 SE 32 39 17 21 1019.3 1019.2 0.2
21/02:00pm 25.0 21.7 17.0 61 4.9 SE 30 37 16 20 1019.2 1019.1 0.2
21/01:30pm 25.2 21.9 16.9 60 5.1 SE 30 39 16 21 1019.5 1019.4 0.2
21/01:00pm 25.7 23.0 17.6 61 5.1 SE 28 37 15 20 1019.6 1019.5 0.2
21/12:30pm 25.8 23.7 18.0 62 4.9 SE 26 35 14 19 1019.7 1019.6 0.2
21/12:00pm 26.0 24.6 19.6 68 4.1 SE 26 37 14 20 1019.8 1019.7 0.2
21/11:30am 25.8 24.5 19.0 66 4.4 SE 24 33 13 18 1020.2 1020.1 0.2
21/11:00am 25.7 24.8 19.1 67 4.2 ESE 22 32 12 17 1020.4 1020.3 0.2
21/10:30am 25.5 24.1 18.9 67 4.2 SE 24 32 13 17 1020.7 1020.6 0.2
21/10:00am 25.1 23.6 18.5 67 4.2 SE 24 35 13 19 1021.0 1020.9 0.0
21/09:30am 25.1 23.3 18.8 68 4.0 SE 26 35 14 19 1020.9 1020.8 0.0
21/09:00am 24.3 22.0 18.5 70 3.7 SE 28 37 15 20 1021.1 1021.0 10.0
21/08:32am 23.9 22.1 18.8 73 3.2 SE 26 33 14 18 1020.9 1020.8 10.0
21/08:30am 23.8 21.8 18.4 72 3.4 SE 26 33 14 18 1020.9 1020.8 10.0
21/08:21am 22.9 21.5 18.7 77 2.7 SE 24 33 13 18 1020.9 1020.8 10.0
21/08:13am 22.6 21.6 18.8 79 2.4 SSE 22 43 12 23 1020.9 1020.8 10.0
21/08:00am 23.4 22.4 18.9 76 2.8 SE 22 37 12 20 1020.9 1020.8 9.8
21/07:30am 23.9 22.2 18.1 70 3.6 SE 24 32 13 17 1020.8 1020.7 9.8
21/07:00am 23.8 22.1 18.0 70 3.6 SE 24 35 13 19 1020.6 1020.5 9.8
21/06:30am 23.4 21.2 17.8 71 3.5 SE 26 35 14 19 1020.3 1020.2 9.8
21/06:00am 23.5 20.9 17.9 71 3.5 SE 28 39 15 21 1020.0 1019.9 9.8
21/05:30am 23.3 21.7 18.4 74 3.1 SE 24 33 13 18 1019.7 1019.6 9.8
21/05:00am 23.4 21.3 18.1 72 3.3 SE 26 33 14 18 1019.5 1019.4 9.8
21/04:30am 23.4 21.0 18.3 73 3.2 ESE 28 35 15 19 1019.0 1018.9 9.8
21/04:00am 23.5 21.3 18.8 75 3.0 ESE 28 39 15 21 1018.7 1018.6 9.8
21/03:30am 23.5 20.8 18.4 73 3.2 ESE 30 43 16 23 1018.8 1018.7 9.8
21/03:00am 23.3 21.1 18.8 76 2.8 ESE 28 37 15 20 1019.0 1018.9 9.8
21/02:30am 23.6 20.9 18.5 73 3.2 ESE 30 41 16 22 1019.1 1019.0 9.8
21/02:00am 23.8 21.2 18.7 73 3.2 ESE 30 46 16 25 1019.4 1019.3 9.8
21/01:30am 23.5 20.7 19.0 76 2.9 ESE 32 43 17 23 1019.8 1019.7 9.8
21/01:00am 23.8 21.4 19.9 79 2.5 ESE 32 44 17 24 1019.8 1019.7 9.6
21/12:30am 23.6 22.1 20.3 82 2.1 ESE 28 39 15 21 1019.9 1019.8 9.6
21/12:00am 23.6 21.1 19.7 79 2.5 ESE 32 44 17 24 1020.0 1019.9 9.6
 
Date/Time
EST
Temp
°C
App
Temp
°C
Dew
Point
°C
Rel
Hum
%
Delta-T
°C
Wind Press
QNH
hPa
Press
MSL
hPa
Rain since
9am
mm
Dir  Spd
km/h
Gust
km/h
Spd
kts
Gust
kts
20/11:30pm 23.7 21.7 20.0 80 2.4 ESE 30 37 16 20 1020.2 1020.1 9.6
20/11:00pm 23.1 23.2 20.4 85 1.7 E 20 30 11 16 1020.2 1020.1 9.4
20/10:57pm 23.0 22.8 20.5 86 1.6 E 22 30 12 16 1020.2 1020.1 9.4
20/10:42pm 22.9 21.8 20.2 85 1.7 ESE 26 41 14 22 1020.3 1020.2 9.4
20/10:30pm 23.8 22.7 20.3 81 2.3 ESE 26 35 14 19 1020.2 1020.1 9.0
20/10:00pm 23.1 20.8 20.2 84 1.9 E 32 46 17 25 1020.1 1020.0 9.0
20/09:56pm 23.1 20.6 20.1 83 1.9 E 33 46 18 25 1020.1 1020.0 9.0
20/09:39pm 22.5 20.6 20.2 87 1.5 E 30 46 16 25 1020.2 1020.1 8.6
20/09:37pm 22.5 21.0 20.2 87 1.5 ESE 28 46 15 25 1020.3 1020.2 8.4
20/09:30pm 23.1 23.1 21.0 88 1.4 ESE 22 33 12 18 1020.5 1020.4 7.8
20/09:29pm 23.1 23.1 21.0 88 1.4 ESE 22 33 12 18 1020.5 1020.4 7.8
20/09:00pm 22.8 21.3 20.3 86 1.6 SE 28 35 15 19 1020.5 1020.4 7.6
20/08:30pm 22.5 21.1 20.4 88 1.4 SE 28 37 15 20 1020.8 1020.7 7.6
20/08:00pm 21.7 17.5 18.9 84 1.8 ESE 39 57 21 31 1020.4 1020.3 7.4
20/07:53pm 21.8 17.6 18.8 83 1.9 ESE 39 57 21 31 1020.3 1020.2 7.4
20/07:45pm 23.5 21.3 20.4 83 2.0 ESE 32 43 17 23 1020.3 1020.2 7.4
20/07:30pm 23.4 21.7 20.5 84 1.9 SE 30 41 16 22 1020.3 1020.2 7.4
20/07:27pm 23.3 22.1 20.8 86 1.6 SE 28 39 15 21 1020.3 1020.2 7.4
20/07:24pm 23.2 22.0 20.9 87 1.5 SE 28 39 15 21 1020.2 1020.1 7.4
20/07:06pm 22.5 20.8 19.9 85 1.7 SE 28 50 15 27 1020.2 1020.1 6.8
20/07:00pm 23.6 23.2 20.9 85 1.8 SE 24 33 13 18 1019.8 1019.7 5.6
20/06:49pm 23.5 22.9 20.4 83 2.0 SE 24 35 13 19 1019.7 1019.6 5.6
20/06:48pm 23.5 22.5 20.4 83 2.0 SE 26 35 14 19 1019.6 1019.5 5.6
20/06:30pm 22.9 21.2 20.6 87 1.5 SE 30 43 16 23 1019.6 1019.5 5.6
20/06:21pm 23.2 20.8 20.0 82 2.1 SE 32 46 17 25 1019.5 1019.4 3.6
20/06:00pm 23.1 22.0 20.2 84 1.9 SE 26 35 14 19 1019.2 1019.1 3.0
20/05:30pm 24.1 22.3 20.4 80 2.4 SE 30 39 16 21 1019.1 1019.0 3.0
20/05:00pm 24.0 21.8 20.3 80 2.4 ESE 32 39 17 21 1018.8 1018.7 3.0
20/04:30pm 23.7 23.2 20.8 84 1.9 SE 24 39 13 21 1018.7 1018.6 3.0
20/04:18pm 23.8 24.3 21.1 85 1.8 ESE 20 32 11 17 1018.7 1018.6 3.0
20/04:00pm 22.6 22.5 19.9 85 1.7 ESE 20 46 11 25 1018.6 1018.5 3.0
20/03:58pm 22.8 22.4 20.1 85 1.7 ESE 22 46 12 25 1018.7 1018.6 2.6
20/03:30pm 23.4 21.7 18.9 76 2.9 ESE 26 35 14 19 1018.6 1018.5 0.4
20/03:00pm 24.4 24.0 20.9 81 2.3 SE 24 33 13 18 1018.6 1018.5 0.4
20/02:44pm 23.9 22.9 20.4 81 2.3 SE 26 35 14 19 1018.4 1018.3 0.4
20/02:39pm 23.6 22.8 20.9 85 1.8 ESE 26 35 14 19 1018.5 1018.4 0.4
20/02:30pm 23.4 22.2 20.9 86 1.6 ESE 28 43 15 23 1018.5 1018.4 0.4
20/02:29pm 23.5 21.9 20.8 85 1.8 ESE 30 44 16 24 1018.5 1018.4 0.4
20/02:26pm 23.3 20.9 19.9 81 2.2 ESE 32 46 17 25 1018.6 1018.5 0.2
20/02:25pm 23.7 21.3 20.0 80 2.4 ESE 32 46 17 25 1018.5 1018.4 0.2
20/02:20pm 24.9 23.2 19.9 74 3.2 SE 28 46 15 25 1018.4 1018.3 0.0
20/02:13pm 25.1 25.0 20.8 77 2.8 SE 22 33 12 18 1018.6 1018.5 0.0
20/02:00pm 25.3 24.9 21.0 77 2.8 SE 24 35 13 19 1018.9 1018.8 0.0
20/01:30pm 25.5 24.6 20.7 75 3.1 SE 26 35 14 19 1018.9 1018.8 0.0
20/01:00pm 23.8 22.1 19.9 79 2.5 ESE 28 46 15 25 1019.2 1019.1 0.0
20/12:58pm 23.4 21.6 19.5 79 2.5 ESE 28 46 15 25 1019.1 1019.0 0.0
20/12:30pm 25.4 23.9 19.5 70 3.8 SE 26 37 14 20 1019.6 1019.5 0.0
20/12:00pm 25.5 24.8 20.3 73 3.4 ESE 24 32 13 17 1020.2 1020.1 0.0
20/11:30am 25.4 24.1 19.8 71 3.6 ESE 26 35 14 19 1020.6 1020.5 0.0
20/11:00am 25.0 25.2 21.3 80 2.4 SE 22 32 12 17 1020.9 1020.8 0.0
20/10:30am 25.7 24.5 20.9 75 3.2 SE 28 35 15 19 1021.2 1021.1 0.0
20/10:00am 25.2 23.3 20.2 74 3.2 SE 30 37 16 20 1021.4 1021.3 0.0
20/09:30am 24.0 22.9 20.3 80 2.4 SSE 26 37 14 20 1021.2 1021.1 0.0
20/09:00am 24.3 23.7 20.6 80 2.4 SSE 24 37 13 20 1021.5 1021.4 18.0
20/08:30am 24.5 23.5 20.4 78 2.7 SE 26 35 14 19 1021.4 1021.3 18.0
20/08:20am 24.0 21.9 19.7 77 2.8 SE 30 39 16 21 1021.3 1021.2 18.0
20/08:07am 23.6 23.5 20.7 84 1.9 SE 22 33 12 18 1021.3 1021.2 18.0
20/08:00am 23.6 22.3 19.9 80 2.4 SE 26 35 14 19 1021.2 1021.1 17.8
20/07:30am 23.6 22.1 19.5 78 2.6 SE 26 35 14 19 1020.8 1020.7 17.8
20/07:00am 23.2 22.3 19.8 81 2.2 SSE 24 39 13 21 1020.6 1020.5 17.8
20/06:30am 23.2 21.0 19.6 80 2.3 SE 30 41 16 22 1020.2 1020.1 17.8
20/06:00am 22.2 21.5 19.6 85 1.7 SSE 22 33 12 18 1020.0 1019.9 17.8
20/05:49am 22.2 19.8 19.2 83 1.9 SE 30 44 16 24 1020.0 1019.9 17.8
20/05:30am 22.4 21.1 19.8 85 1.7 SE 26 39 14 21 1019.8 1019.7 17.6
20/05:27am 22.6 21.7 19.8 84 1.8 SE 24 39 13 21 1019.7 1019.6 16.8
20/05:00am 23.6 21.5 18.9 75 3.0 SE 28 39 15 21 1019.5 1019.4 16.4
20/04:30am 23.7 21.8 19.4 77 2.7 SE 28 39 15 21 1019.5 1019.4 16.4
20/04:00am 23.7 21.6 19.8 79 2.5 SE 30 41 16 22 1019.2 1019.1 16.4
20/03:30am 23.2 22.1 20.2 83 1.9 SE 26 37 14 20 1019.1 1019.0 16.2
20/03:13am 23.3 21.3 19.2 78 2.6 SE 28 46 15 25 1019.2 1019.1 16.2
20/03:00am 23.9 22.2 19.8 78 2.6 SE 28 39 15 21 1019.2 1019.1 16.2
20/02:30am 23.9 21.6 19.4 76 2.9 ESE 30 41 16 22 1019.3 1019.2 16.2

Latest Capital City Observations: Canberra | Sydney | Melbourne | Brisbane | Adelaide | Perth | Hobart | Darwin

Other formats

Comma delimited format used in spreadsheet applications
http://www.bom.gov.au/fwo/IDQ60901/IDQ60901.94569.axf

JavaScript Object Notation format (JSON) in row-major order
http://www.bom.gov.au/fwo/IDQ60901/IDQ60901.94569.json

Data quality

Most of these data are generated automatically and are frequently updated. Quality checks on data are not normally performed. It is possible for incorrect values to appear. Refer to information at About Latest Weather Observations and please check the disclaimer before using these data.